Time;durP1;ratioP1;P1;durP2;ratioP2;P2;SDS_P1;SDS_P2;PMS_P1;PMS_P2;Temp;Humidity;BMP_temperature;BMP_pressure;BME280_temperature;BME280_humidity;BME280_pressure;Samples;Min_cycle;Max_cycle;Signal;HPM_P1;HPM_P2
2022/09/27 00:02:44;;;;;;;9.40;7.00;;;;;;;10.55;81.87;98876.77;131622;1268;106724;-82
2022/09/27 00:05:49;;;;;;;12.10;8.00;;;;;;;10.57;81.63;98875.31;131611;1268;108759;-81
2022/09/27 00:08:55;;;;;;;12.60;8.50;;;;;;;10.62;82.08;98878.98;131457;1268;108905;-81
2022/09/27 00:12:01;;;;;;;11.70;8.80;;;;;;;10.71;82.40;98880.64;130927;1268;108774;-82
2022/09/27 00:15:09;;;;;;;15.10;10.60;;;;;;;10.79;82.34;98880.54;131650;1267;109093;-82
2022/09/27 00:18:15;;;;;;;18.10;12.50;;;;;;;10.87;82.50;98871.11;131368;1267;108640;-81
2022/09/27 00:21:21;;;;;;;18.80;11.70;;;;;;;10.93;82.90;98869.52;131569;1268;108945;-82
2022/09/27 00:24:26;;;;;;;16.50;11.60;;;;;;;11.01;83.32;98867.88;131347;1268;109588;-82
2022/09/27 00:27:32;;;;;;;16.80;12.10;;;;;;;11.09;83.26;98865.98;131565;1268;108816;-81
2022/09/27 00:30:43;;;;;;;19.90;13.40;;;;;;;11.18;83.54;98865.13;131343;1268;108933;-81
2022/09/27 00:33:49;;;;;;;23.40;14.80;;;;;;;11.27;83.79;98869.35;131114;1267;108954;-81
2022/09/27 00:36:55;;;;;;;22.60;16.30;;;;;;;11.33;83.78;98863.13;130978;1268;107221;-82
2022/09/27 00:40:01;;;;;;;20.60;14.50;;;;;;;11.38;84.26;98862.80;131177;1267;108716;-81
2022/09/27 00:43:14;;;;;;;18.20;13.00;;;;;;;11.46;84.26;98858.01;131343;1268;108083;-81
2022/09/27 00:46:27;;;;;;;21.60;15.50;;;;;;;11.52;83.99;98855.90;131475;1268;109089;-82
2022/09/27 00:49:36;;;;;;;22.50;16.70;;;;;;;11.60;84.48;98851.35;131375;1268;108663;-82
2022/09/27 00:52:48;;;;;;;28.60;19.40;;;;;;;11.68;84.52;98852.18;130809;1268;108711;-82
2022/09/27 00:55:57;;;;;;;28.80;19.80;;;;;;;11.73;84.43;98847.20;130858;1269;108876;-82
2022/09/27 00:59:10;;;;;;;28.30;18.30;;;;;;;11.76;84.76;98846.97;130956;1268;108697;-82
2022/09/27 01:02:16;;;;;;;24.80;17.40;;;;;;;11.81;84.56;98845.77;130892;1267;108691;-81
2022/09/27 01:05:24;;;;;;;26.30;19.00;;;;;;;11.84;84.77;98844.97;130992;1268;107626;-83
2022/09/27 01:08:30;;;;;;;28.50;19.90;;;;;;;11.91;84.84;98845.85;130618;1268;109079;-83
2022/09/27 01:11:45;;;;;;;26.90;20.30;;;;;;;11.96;84.97;98841.83;131057;1267;108990;-83
2022/09/27 01:15:07;;;;;;;28.90;21.60;;;;;;;12.00;84.74;98841.90;130992;1268;108092;-84
2022/09/27 01:18:27;;;;;;;26.50;18.50;;;;;;;12.02;85.08;98840.14;131008;1267;108864;-83
2022/09/27 01:21:48;;;;;;;25.50;18.00;;;;;;;12.05;85.05;98838.98;131040;1268;107645;-83
2022/09/27 01:25:22;;;;;;;23.20;18.20;;;;;;;12.09;85.26;98832.89;131038;1268;108803;-83
2022/09/27 01:28:44;;;;;;;24.80;19.40;;;;;;;12.14;85.30;98832.05;131138;1268;108775;-83
2022/09/27 01:31:58;;;;;;;27.00;19.20;;;;;;;12.19;85.07;98833.92;130941;1268;108819;-83
2022/09/27 01:35:14;;;;;;;29.30;21.90;;;;;;;12.23;85.22;98832.95;130434;1268;108770;-83
2022/09/27 01:38:31;;;;;;;25.70;18.90;;;;;;;12.22;85.32;98831.96;130891;1268;108874;-83
2022/09/27 01:41:45;;;;;;;26.70;19.00;;;;;;;12.22;85.26;98835.66;130681;1268;108826;-84
2022/09/27 01:44:55;;;;;;;26.30;19.80;;;;;;;12.24;85.35;98834.31;130616;1268;108849;-84
2022/09/27 01:48:09;;;;;;;30.00;22.20;;;;;;;12.29;85.46;98825.91;130571;1268;109249;-82
2022/09/27 01:51:40;;;;;;;31.90;23.30;;;;;;;12.30;85.55;98824.77;130975;1267;108952;-83
2022/09/27 01:54:46;;;;;;;;;;;;;;;12.30;85.50;98822.33;130762;1268;108865;-84
2022/09/27 01:58:20;;;;;;;27.40;19.60;;;;;;;12.27;85.48;98822.69;130614;1267;108578;-84
2022/09/27 02:01:30;;;;;;;28.70;20.80;;;;;;;12.24;85.76;98818.71;130578;1268;108814;-82
2022/09/27 02:04:39;;;;;;;26.10;18.30;;;;;;;12.23;85.60;98814.15;130936;1268;108698;-81
2022/09/27 02:07:55;;;;;;;30.50;22.50;;;;;;;12.25;85.61;98808.02;130945;1268;108703;-81
2022/09/27 02:11:01;;;;;;;;;;;;;;;12.28;85.85;98804.59;130850;1268;108968;-81
2022/09/27 02:14:15;;;;;;;25.70;18.80;;;;;;;12.31;85.73;98798.11;130679;1268;108893;-79
2022/09/27 02:17:37;;;;;;;30.30;21.80;;;;;;;12.33;85.72;98796.13;130556;1268;107713;-78
2022/09/27 02:20:51;;;;;;;27.10;19.20;;;;;;;12.33;85.74;98790.41;130525;1268;108780;-79
2022/09/27 02:24:01;;;;;;;30.10;19.80;;;;;;;12.33;85.74;98793.04;130501;1268;108844;-81
2022/09/27 02:27:16;;;;;;;29.30;20.90;;;;;;;12.33;85.79;98790.09;131161;1268;108646;-83
2022/09/27 02:30:23;;;;;;;26.30;18.90;;;;;;;12.34;85.82;98791.98;131928;1268;108823;-82
2022/09/27 02:33:41;;;;;;;29.60;20.50;;;;;;;12.38;85.85;98788.79;131981;1268;108637;-82
2022/09/27 02:36:52;;;;;;;31.20;22.90;;;;;;;12.40;85.77;98782.11;131061;1268;107734;-82
2022/09/27 02:39:58;;;;;;;28.60;19.70;;;;;;;12.39;85.74;98780.30;130889;1268;108860;-82
2022/09/27 02:43:06;;;;;;;29.70;20.50;;;;;;;12.38;85.83;98784.88;130917;1268;108697;-82
2022/09/27 02:46:30;;;;;;;29.00;21.10;;;;;;;12.38;85.89;98781.27;130882;1268;108893;-82
2022/09/27 02:49:52;;;;;;;30.40;21.50;;;;;;;12.41;85.88;98771.39;130903;1268;109093;-82
2022/09/27 02:53:23;;;;;;;31.40;22.70;;;;;;;12.43;86.01;98763.94;130877;1268;107688;-81
2022/09/27 02:56:45;;;;;;;32.40;23.10;;;;;;;12.40;85.78;98761.46;130979;1267;108915;-82
2022/09/27 03:00:13;;;;;;;30.50;20.40;;;;;;;12.35;85.91;98757.41;131305;1268;108841;-83
2022/09/27 03:03:38;;;;;;;26.50;19.00;;;;;;;12.35;85.94;98755.61;130939;1268;108953;-84
2022/09/27 03:06:47;;;;;;;31.90;21.70;;;;;;;12.37;86.11;98749.44;131077;1268;108829;-84
2022/09/27 03:09:54;;;;;;;32.10;22.70;;;;;;;12.41;86.08;98748.05;131440;1268;107691;-83
2022/09/27 03:13:00;;;;;;;28.60;21.10;;;;;;;12.43;85.87;98743.89;131373;1268;108712;-84
2022/09/27 03:16:06;;;;;;;32.40;23.10;;;;;;;12.44;85.80;98747.04;131307;1267;108763;-83
2022/09/27 03:19:27;;;;;;;28.80;19.60;;;;;;;12.41;85.88;98747.02;131218;1268;108698;-82
2022/09/27 03:22:51;;;;;;;29.10;18.60;;;;;;;12.40;85.97;98751.50;131395;1268;108667;-81
2022/09/27 03:25:56;;;;;;;26.10;18.60;;;;;;;12.43;86.17;98752.02;131350;1268;108662;-81
2022/09/27 03:29:02;;;;;;;30.40;21.20;;;;;;;12.47;86.03;98753.79;131319;1268;108904;-83
2022/09/27 03:32:08;;;;;;;30.00;21.20;;;;;;;12.49;85.96;98746.75;131373;1268;108680;-83
2022/09/27 03:35:45;;;;;;;29.40;20.20;;;;;;;12.50;86.05;98746.46;131323;1268;108762;-82
2022/09/27 03:38:53;;;;;;;25.40;16.30;;;;;;;12.47;85.86;98747.85;131358;1268;106886;-82
2022/09/27 03:41:59;;;;;;;22.60;16.30;;;;;;;12.45;85.86;98743.16;131422;1268;108622;-82
2022/09/27 03:45:04;;;;;;;26.20;19.00;;;;;;;12.45;85.89;98746.77;131386;1267;108704;-82
2022/09/27 03:48:11;;;;;;;26.60;18.80;;;;;;;12.45;85.77;98749.55;131434;1268;108684;-82
2022/09/27 03:51:16;;;;;;;23.50;16.80;;;;;;;12.46;85.76;98744.65;131299;1268;109021;-82
2022/09/27 03:54:22;;;;;;;26.20;19.10;;;;;;;12.43;85.73;98741.05;131213;1267;108939;-82
2022/09/27 03:57:30;;;;;;;21.20;14.80;;;;;;;12.41;85.81;98737.67;131408;1267;108851;-82
2022/09/27 04:00:40;;;;;;;24.10;15.50;;;;;;;12.38;85.70;98734.42;131484;1267;109223;-82
2022/09/27 04:03:45;;;;;;;21.40;15.80;;;;;;;12.37;85.73;98728.11;131251;1268;108652;-83
2022/09/27 04:07:11;;;;;;;22.80;15.70;;;;;;;12.39;85.72;98726.68;131327;1268;108707;-83
2022/09/27 04:10:17;;;;;;;24.60;18.10;;;;;;;12.41;85.70;98722.70;131149;1266;108804;-83
2022/09/27 04:13:23;;;;;;;26.50;18.90;;;;;;;12.40;85.70;98717.64;131101;1267;108656;-83
2022/09/27 04:16:32;;;;;;;25.90;17.80;;;;;;;12.38;85.67;98707.67;130845;1268;108859;-83
2022/09/27 04:20:02;;;;;;;24.80;16.90;;;;;;;12.34;85.57;98703.59;130704;1268;109735;-83
2022/09/27 04:23:09;;;;;;;25.60;17.30;;;;;;;12.32;85.83;98700.50;130724;1267;108937;-83
2022/09/27 04:26:17;;;;;;;25.50;17.00;;;;;;;12.31;85.89;98704.70;130871;1267;109042;-83
2022/09/27 04:29:41;;;;;;;24.90;16.80;;;;;;;12.33;85.68;98704.45;130814;1267;108795;-82
2022/09/27 04:32:56;;;;;;;28.20;19.10;;;;;;;12.36;85.89;98705.25;130693;1268;106887;-84
2022/09/27 04:36:35;;;;;;;27.10;18.20;;;;;;;12.37;85.81;98710.51;130718;1268;108732;-84
2022/09/27 04:39:54;;;;;;;26.40;17.50;;;;;;;12.35;85.73;98713.42;130976;1267;108785;-83
2022/09/27 04:43:00;;;;;;;25.60;17.30;;;;;;;12.36;85.95;98710.35;130797;1268;106767;-83
2022/09/27 04:46:06;;;;;;;27.50;18.50;;;;;;;12.36;85.88;98711.00;131078;1267;108684;-82
2022/09/27 04:49:12;;;;;;;26.90;18.60;;;;;;;12.38;85.95;98711.26;131121;1267;108888;-83
2022/09/27 04:52:18;;;;;;;28.40;19.60;;;;;;;12.41;86.10;98712.09;131080;1267;108759;-83
2022/09/27 04:55:24;;;;;;;28.70;19.50;;;;;;;12.43;85.87;98704.77;131028;1267;109178;-83
2022/09/27 04:58:29;;;;;;;28.30;18.60;;;;;;;12.44;85.82;98705.13;131593;1267;108697;-82
2022/09/27 05:01:36;;;;;;;26.30;17.10;;;;;;;12.43;85.93;98706.03;130753;1267;108754;-83
2022/09/27 05:04:51;;;;;;;32.30;21.20;;;;;;;12.43;85.94;98693.48;130558;1267;108752;-79
2022/09/27 05:07:58;;;;;;;32.20;21.10;;;;;;;12.47;85.89;98688.14;130592;1267;108876;-79
2022/09/27 05:11:15;;;;;;;31.60;20.80;;;;;;;12.49;85.91;98682.02;130486;1267;110264;-81
2022/09/27 05:14:23;;;;;;;32.10;20.30;;;;;;;12.51;85.67;98678.18;130376;1267;108689;-79
2022/09/27 05:17:54;;;;;;;;;;;;;;;12.50;85.73;98664.84;130483;1267;108586;-80
2022/09/27 05:21:02;;;;;;;35.80;21.20;;;;;;;12.50;85.69;98649.45;130598;1267;108800;-78
2022/09/27 05:24:47;;;;;;;32.10;19.40;;;;;;;12.47;85.76;98653.06;130421;1268;108576;-79
2022/09/27 05:27:55;;;;;;;31.60;19.30;;;;;;;12.43;86.02;98673.94;130435;1267;109967;-78
2022/09/27 05:31:02;;;;;;;40.20;25.20;;;;;;;12.43;86.24;98683.15;130420;1267;109210;-77
2022/09/27 05:34:09;;;;;;;36.70;22.70;;;;;;;12.47;86.08;98689.91;130477;1267;108849;-78
2022/09/27 05:37:19;;;;;;;32.70;21.40;;;;;;;12.51;85.86;98682.16;130469;1265;108792;-78
2022/09/27 05:40:28;;;;;;;32.50;20.80;;;;;;;12.53;85.93;98679.30;130387;1267;108868;-77
2022/09/27 05:43:33;;;;;;;28.80;18.40;;;;;;;12.53;85.97;98676.46;130283;1268;108679;-77
2022/09/27 05:46:40;;;;;;;30.30;18.50;;;;;;;12.55;85.92;98676.17;130504;1267;107594;-78
2022/09/27 05:49:46;;;;;;;30.70;20.10;;;;;;;12.58;86.08;98676.34;130432;1267;107778;-77
2022/09/27 05:52:52;;;;;;;30.90;20.40;;;;;;;12.62;86.03;98676.39;130251;1268;108670;-76
2022/09/27 05:56:03;;;;;;;28.80;19.50;;;;;;;12.67;86.06;98678.11;130529;1268;108494;-77
2022/09/27 05:59:15;;;;;;;30.70;19.90;;;;;;;12.71;85.97;98677.58;130391;1268;108735;-77
2022/09/27 06:02:39;;;;;;;28.20;17.00;;;;;;;12.72;86.10;98678.44;130329;1268;107864;-77
2022/09/27 06:06:05;;;;;;;24.70;16.30;;;;;;;12.73;86.00;98674.89;130369;1268;109737;-76
2022/09/27 06:09:15;;;;;;;27.90;17.80;;;;;;;12.74;86.00;98678.27;130315;1268;108667;-76
2022/09/27 06:12:22;;;;;;;25.80;16.80;;;;;;;12.78;85.88;98671.90;130473;1267;108684;-76
2022/09/27 06:15:28;;;;;;;26.60;16.40;;;;;;;12.82;86.01;98673.02;130225;1268;108650;-76
2022/09/27 06:18:34;;;;;;;24.30;16.40;;;;;;;12.85;85.82;98679.11;130470;1268;108837;-76
2022/09/27 06:21:40;;;;;;;26.50;16.80;;;;;;;12.87;85.83;98683.02;130412;1267;107299;-76
2022/09/27 06:24:45;;;;;;;25.00;15.70;;;;;;;12.90;85.97;98685.65;130275;1268;108780;-77
2022/09/27 06:27:59;;;;;;;20.70;12.60;;;;;;;12.91;85.86;98688.54;130416;1266;109176;-76
2022/09/27 06:31:10;;;;;;;21.50;13.90;;;;;;;12.91;85.77;98689.73;130323;1267;108910;-76
2022/09/27 06:34:25;;;;;;;22.80;15.40;;;;;;;12.97;85.72;98688.43;130449;1267;108714;-77
2022/09/27 06:37:32;;;;;;;20.30;13.80;;;;;;;13.01;85.61;98689.88;130393;1268;108748;-77
2022/09/27 06:40:37;;;;;;;21.80;14.20;;;;;;;13.01;85.59;98692.90;130287;1267;106813;-77
2022/09/27 06:43:56;;;;;;;20.60;13.80;;;;;;;13.01;85.63;98691.69;130539;1267;107689;-77
2022/09/27 06:47:22;;;;;;;18.90;12.00;;;;;;;13.00;85.62;98689.84;130450;1268;108910;-77
2022/09/27 06:50:49;;;;;;;17.80;10.90;;;;;;;12.97;85.70;98693.22;130409;1266;108850;-77
2022/09/27 06:53:54;;;;;;;19.30;13.00;;;;;;;13.02;85.62;98696.47;130376;1267;108646;-77
2022/09/27 06:56:59;;;;;;;18.70;12.20;;;;;;;13.09;85.56;98696.52;130491;1267;108669;-76
2022/09/27 07:00:25;;;;;;;19.10;13.00;;;;;;;13.13;85.45;98694.07;130285;1267;108694;-77
2022/09/27 07:03:57;;;;;;;16.50;11.50;;;;;;;13.18;85.33;98700.95;130292;1268;108727;-77
2022/09/27 07:07:29;;;;;;;18.10;11.90;;;;;;;13.21;85.60;98704.19;130306;1268;108857;-77
2022/09/27 07:10:36;;;;;;;20.10;12.90;;;;;;;13.18;85.44;98700.05;130365;1267;109120;-77
2022/09/27 07:13:42;;;;;;;17.90;11.70;;;;;;;13.18;85.46;98693.11;130405;1268;108862;-77
2022/09/27 07:16:48;;;;;;;17.60;12.40;;;;;;;13.24;85.55;98689.97;130497;1267;107692;-77
2022/09/27 07:19:54;;;;;;;20.40;13.60;;;;;;;13.33;85.37;98689.61;130567;1267;108781;-77
2022/09/27 07:23:00;;;;;;;20.70;14.60;;;;;;;13.41;85.37;98686.64;130399;1267;108965;-77
2022/09/27 07:26:09;;;;;;;20.20;14.40;;;;;;;13.47;85.29;98689.39;130288;1268;108668;-77
2022/09/27 07:29:15;;;;;;;19.20;14.10;;;;;;;13.51;85.21;98688.95;130311;1267;108825;-77
2022/09/27 07:32:21;;;;;;;18.80;12.70;;;;;;;13.53;85.11;98680.34;130401;1268;108775;-77
2022/09/27 07:35:27;;;;;;;18.10;13.20;;;;;;;13.58;84.92;98676.28;130270;1267;108678;-77
2022/09/27 07:38:33;;;;;;;18.00;13.50;;;;;;;13.69;84.98;98680.04;130317;1268;107496;-77
2022/09/27 07:41:39;;;;;;;18.70;13.10;;;;;;;13.80;84.67;98675.74;130325;1268;108846;-76
2022/09/27 07:44:45;;;;;;;17.40;12.80;;;;;;;13.89;84.70;98672.74;130521;1268;107748;-77
2022/09/27 07:48:15;;;;;;;20.40;14.70;;;;;;;13.98;84.41;98673.98;130447;1267;108924;-77
2022/09/27 07:51:53;;;;;;;20.90;15.50;;;;;;;14.02;84.16;98674.16;130211;1268;108594;-77
2022/09/27 07:55:13;;;;;;;20.80;14.60;;;;;;;14.04;84.03;98677.36;130300;1268;108742;-77
2022/09/27 07:58:31;;;;;;;19.10;14.30;;;;;;;14.08;84.05;98682.42;130419;1268;108844;-77
2022/09/27 08:01:39;;;;;;;20.30;15.60;;;;;;;14.14;84.00;98685.98;130417;1268;108767;-77
2022/09/27 08:04:46;;;;;;;21.20;16.30;;;;;;;14.24;84.05;98684.60;130241;1267;108908;-77
2022/09/27 08:07:56;;;;;;;23.80;16.30;;;;;;;14.35;83.79;98682.73;130395;1268;108956;-77
2022/09/27 08:11:11;;;;;;;22.50;16.90;;;;;;;14.43;83.77;98686.10;130347;1268;108910;-77
2022/09/27 08:14:17;;;;;;;23.50;17.90;;;;;;;14.50;83.74;98688.65;130426;1268;107263;-77
2022/09/27 08:17:25;;;;;;;23.30;18.00;;;;;;;14.60;83.88;98694.76;130346;1267;108778;-76
2022/09/27 08:20:43;;;;;;;24.10;17.60;;;;;;;14.73;83.29;98699.73;130258;1268;108864;-78
2022/09/27 08:24:22;;;;;;;22.70;17.40;;;;;;;14.81;83.35;98698.82;130164;1267;108734;-77
2022/09/27 08:28:06;;;;;;;21.60;17.00;;;;;;;14.90;83.17;98698.73;129672;1274;108776;-76
2022/09/27 08:31:28;;;;;;;22.80;18.10;;;;;;;15.05;83.36;98696.75;129720;1271;108977;-77
2022/09/27 08:34:35;;;;;;;23.30;17.80;;;;;;;15.17;82.96;98700.16;130431;1267;108678;-77
2022/09/27 08:37:41;;;;;;;27.10;20.40;;;;;;;15.19;82.99;98696.54;130354;1267;109044;-79
2022/09/27 08:40:53;;;;;;;25.20;19.50;;;;;;;15.26;82.84;98691.15;130334;1268;108791;-76
2022/09/27 08:44:13;;;;;;;23.90;18.50;;;;;;;15.37;82.64;98684.59;130465;1267;108959;-77
2022/09/27 08:47:34;;;;;;;23.10;18.20;;;;;;;15.47;82.18;98676.73;130523;1267;108677;-77
2022/09/27 08:50:42;;;;;;;;;;;;;;;15.52;81.98;98679.48;130429;1268;108679;-76
2022/09/27 08:53:57;;;;;;;24.40;16.70;;;;;;;15.58;81.82;98672.44;130269;1267;109189;-78
2022/09/27 08:57:10;;;;;;;21.40;17.50;;;;;;;15.66;81.67;98669.00;130451;1267;108701;-77
2022/09/27 09:00:18;;;;;;;24.90;17.80;;;;;;;15.69;81.42;98671.54;130469;1267;108891;-77
2022/09/27 09:03:27;;;;;;;21.00;17.20;;;;;;;15.82;81.24;98667.23;130349;1267;107110;-78
2022/09/27 09:06:40;;;;;;;20.70;17.20;;;;;;;15.91;80.95;98669.73;130518;1268;108853;-79
2022/09/27 09:09:57;;;;;;;22.00;17.10;;;;;;;15.94;80.62;98669.82;130542;1267;108762;-78
2022/09/27 09:13:13;;;;;;;22.70;17.60;;;;;;;15.92;80.85;98665.08;130476;1267;109145;-78
2022/09/27 09:16:35;;;;;;;22.00;17.90;;;;;;;16.00;80.65;98660.79;130483;1268;109142;-76
2022/09/27 09:20:03;;;;;;;22.80;17.70;;;;;;;16.11;80.76;98661.35;130298;1268;109504;-76
2022/09/27 09:23:35;;;;;;;21.50;16.70;;;;;;;16.16;80.50;98659.95;130432;1267;108757;-79
2022/09/27 09:26:48;;;;;;;20.90;16.20;;;;;;;16.19;80.37;98665.39;130470;1268;108968;-77
2022/09/27 09:30:18;;;;;;;22.90;17.10;;;;;;;16.20;79.66;98664.08;130319;1268;107750;-76
2022/09/27 09:33:32;;;;;;;19.50;16.30;;;;;;;16.24;79.99;98653.79;130419;1267;108720;-77
2022/09/27 09:36:42;;;;;;;19.30;16.00;;;;;;;16.29;79.71;98653.25;130410;1268;108758;-77
2022/09/27 09:39:53;;;;;;;17.90;14.70;;;;;;;16.34;79.55;98654.77;130476;1267;108701;-77
2022/09/27 09:43:05;;;;;;;17.20;14.60;;;;;;;16.41;79.09;98657.50;130371;1268;107695;-78
2022/09/27 09:46:16;;;;;;;17.40;14.50;;;;;;;16.43;78.99;98657.07;130376;1268;108812;-77
2022/09/27 09:49:28;;;;;;;19.20;15.10;;;;;;;16.46;78.79;98654.75;130231;1268;108782;-77
2022/09/27 09:52:43;;;;;;;15.70;12.70;;;;;;;16.49;78.73;98651.39;130343;1268;108724;-77
2022/09/27 09:55:56;;;;;;;15.50;12.60;;;;;;;16.54;78.22;98649.30;130377;1268;108763;-77
2022/09/27 09:59:06;;;;;;;15.20;12.40;;;;;;;16.59;78.28;98641.20;130371;1267;108830;-78
2022/09/27 10:02:28;;;;;;;14.50;12.30;;;;;;;16.73;78.04;98639.83;130329;1268;108697;-78
2022/09/27 10:05:36;;;;;;;14.50;12.30;;;;;;;16.86;77.88;98637.85;130188;1270;108697;-77
2022/09/27 10:08:46;;;;;;;13.30;11.60;;;;;;;16.91;77.53;98629.23;130412;1268;108744;-78
2022/09/27 10:12:04;;;;;;;13.50;11.50;;;;;;;16.97;77.25;98623.52;130374;1268;108488;-77
2022/09/27 10:15:17;;;;;;;14.70;11.70;;;;;;;16.99;77.03;98623.09;130408;1268;108710;-78
2022/09/27 10:18:25;;;;;;;14.20;11.60;;;;;;;16.96;76.95;98619.69;130345;1268;107487;-78
2022/09/27 10:21:33;;;;;;;14.60;11.70;;;;;;;16.91;76.60;98613.64;130289;1269;108676;-77
2022/09/27 10:24:56;;;;;;;12.50;10.70;;;;;;;16.84;76.18;98615.70;130441;1268;109003;-77
2022/09/27 10:28:36;;;;;;;11.40;10.20;;;;;;;16.77;76.22;98608.97;130350;1267;108978;-78
2022/09/27 10:31:46;;;;;;;12.10;10.80;;;;;;;16.76;76.28;98611.34;130314;1268;108684;-77
2022/09/27 10:35:17;;;;;;;12.90;11.20;;;;;;;16.81;76.23;98603.30;130350;1268;107129;-77
2022/09/27 10:38:29;;;;;;;13.20;11.30;;;;;;;16.83;76.05;98602.77;130367;1268;108968;-78
2022/09/27 10:41:40;;;;;;;13.90;11.80;;;;;;;16.92;76.02;98602.67;130399;1267;108664;-78
2022/09/27 10:44:57;;;;;;;13.70;10.50;;;;;;;16.96;75.71;98604.86;130472;1268;108747;-79
2022/09/27 10:48:25;;;;;;;11.10;10.00;;;;;;;16.92;75.69;98604.19;130460;1267;108429;-78
2022/09/27 10:51:33;;;;;;;11.70;9.90;;;;;;;16.92;75.31;98601.33;130549;1267;108714;-78
2022/09/27 10:54:43;;;;;;;11.10;9.90;;;;;;;16.92;75.24;98596.92;130467;1267;169446;-80
2022/09/27 10:57:53;;;;;;;11.80;10.20;;;;;;;16.99;75.17;98596.20;130396;1268;109669;-78
2022/09/27 11:01:02;;;;;;;11.90;10.60;;;;;;;17.04;74.81;98595.98;130417;1268;109250;-79
2022/09/27 11:04:17;;;;;;;10.70;9.60;;;;;;;17.09;74.79;98591.69;130427;1267;108887;-78
2022/09/27 11:07:23;;;;;;;10.40;9.20;;;;;;;17.12;74.73;98590.78;130453;1267;109089;-79
2022/09/27 11:10:37;;;;;;;12.90;9.60;;;;;;;17.13;74.94;98589.66;130512;1268;108831;-78
2022/09/27 11:13:57;;;;;;;10.20;9.10;;;;;;;17.18;74.83;98590.14;130377;1268;108730;-79
2022/09/27 11:17:12;;;;;;;10.70;9.60;;;;;;;17.30;74.83;98578.33;130478;1267;109005;-79
2022/09/27 11:20:31;;;;;;;10.50;9.30;;;;;;;17.40;74.37;98577.98;130476;1268;108651;-79
2022/09/27 11:23:53;;;;;;;10.10;9.00;;;;;;;17.41;73.91;98577.04;130584;1268;108742;-78
2022/09/27 11:27:10;;;;;;;10.50;9.40;;;;;;;17.40;73.80;98577.52;130484;1267;109515;-79
2022/09/27 11:30:19;;;;;;;10.10;9.10;;;;;;;17.40;73.67;98574.48;130480;1268;108655;-79
2022/09/27 11:34:07;;;;;;;12.00;10.70;;;;;;;17.45;73.92;98572.31;130387;1268;108887;-79
2022/09/27 11:37:16;;;;;;;;;;;;;;;17.46;73.49;98572.57;130331;1268;108686;-79
2022/09/27 11:40:31;;;;;;;11.10;10.00;;;;;;;17.47;73.50;98570.52;130456;1267;108722;-79
2022/09/27 11:43:58;;;;;;;11.30;10.10;;;;;;;17.41;73.43;98570.14;130357;1268;108908;-78
2022/09/27 11:47:15;;;;;;;12.50;10.90;;;;;;;17.20;72.99;98564.01;130467;1267;107681;-78
2022/09/27 11:50:47;;;;;;;12.00;10.60;;;;;;;17.04;73.22;98558.43;130377;1267;109114;-78
2022/09/27 11:54:15;;;;;;;13.00;10.90;;;;;;;16.95;73.35;98554.52;130358;1268;108928;-79
2022/09/27 11:57:27;;;;;;;12.40;11.10;;;;;;;17.00;73.50;98546.70;130680;1268;109014;-78
2022/09/27 12:00:50;;;;;;;11.30;9.80;;;;;;;17.09;73.21;98543.66;130597;1267;107703;-78
2022/09/27 12:04:34;;;;;;;11.60;10.40;;;;;;;17.17;73.00;98540.69;130660;1268;108692;-79
2022/09/27 12:07:51;;;;;;;10.90;9.80;;;;;;;17.19;72.83;98536.16;130333;1268;108945;-78
2022/09/27 12:11:07;;;;;;;12.30;10.20;;;;;;;17.22;72.99;98535.31;130387;1268;108633;-78
2022/09/27 12:14:20;;;;;;;12.50;11.20;;;;;;;17.18;72.68;98533.77;130516;1268;108679;-78
2022/09/27 12:17:30;;;;;;;11.50;10.30;;;;;;;17.18;72.49;98525.58;130411;1267;108923;-79
2022/09/27 12:20:38;;;;;;;12.70;11.40;;;;;;;17.31;72.58;98516.98;130527;1268;108695;-78
2022/09/27 12:23:47;;;;;;;12.90;11.50;;;;;;;17.34;72.13;98521.02;130418;1268;108730;-78
2022/09/27 12:27:16;;;;;;;14.00;11.90;;;;;;;17.21;72.26;98516.69;130522;1268;108731;-78
2022/09/27 12:30:22;;;;;;;13.00;11.70;;;;;;;17.09;72.16;98512.04;130456;1268;107727;-79
2022/09/27 12:33:36;;;;;;;12.70;11.20;;;;;;;16.95;72.09;98503.39;130444;1268;108718;-79
2022/09/27 12:36:48;;;;;;;14.20;12.20;;;;;;;16.85;72.52;98494.84;130370;1267;108282;-78
2022/09/27 12:40:00;;;;;;;13.20;11.60;;;;;;;16.76;72.50;98491.27;130440;1268;108963;-79
2022/09/27 12:43:17;;;;;;;13.00;11.70;;;;;;;16.65;72.64;98488.55;130550;1268;107718;-78
2022/09/27 12:47:08;;;;;;;11.50;10.30;;;;;;;16.61;72.74;98488.34;130316;1268;108831;-79
2022/09/27 12:50:22;;;;;;;13.60;11.20;;;;;;;16.67;72.70;98484.34;130481;1268;108783;-79
2022/09/27 12:53:34;;;;;;;12.20;11.00;;;;;;;16.66;72.51;98482.00;130326;1267;108321;-78
2022/09/27 12:56:51;;;;;;;12.10;10.70;;;;;;;16.66;72.56;98481.18;130340;1270;108723;-78
2022/09/27 13:00:06;;;;;;;12.30;11.00;;;;;;;16.73;72.73;98474.86;130352;1268;108556;-79
2022/09/27 13:03:42;;;;;;;13.80;11.20;;;;;;;16.75;72.58;98469.86;130386;1268;107046;-79
2022/09/27 13:06:59;;;;;;;13.10;11.80;;;;;;;16.74;72.70;98463.41;130487;1267;108713;-78
2022/09/27 13:10:46;;;;;;;13.30;11.70;;;;;;;16.74;72.40;98462.34;130402;1268;108744;-78
2022/09/27 13:14:03;;;;;;;13.20;11.70;;;;;;;16.71;72.47;98456.20;129989;1273;109076;-79
2022/09/27 13:17:33;;;;;;;14.10;11.60;;;;;;;16.72;72.52;98449.15;129787;1273;108493;-79
2022/09/27 13:20:48;;;;;;;13.20;11.80;;;;;;;16.73;72.57;98444.13;130321;1268;109104;-79
2022/09/27 13:24:39;;;;;;;15.20;12.10;;;;;;;16.74;72.52;98438.85;130469;1267;108803;-78
2022/09/27 13:27:46;;;;;;;13.70;10.80;;;;;;;16.74;72.61;98435.94;130454;1266;108674;-79
2022/09/27 13:31:01;;;;;;;12.70;11.40;;;;;;;16.76;72.59;98430.77;130610;1267;108884;-79
2022/09/27 13:34:31;;;;;;;12.60;11.00;;;;;;;16.81;72.63;98437.77;130500;1266;108727;-79
2022/09/27 13:37:50;;;;;;;12.20;10.60;;;;;;;16.89;72.56;98436.13;130425;1268;108619;-78
2022/09/27 13:41:15;;;;;;;11.90;10.60;;;;;;;16.96;72.35;98430.88;130473;1267;108764;-78
2022/09/27 13:44:39;;;;;;;13.20;11.80;;;;;;;17.11;72.35;98426.36;130444;1267;108836;-79
2022/09/27 13:47:50;;;;;;;13.50;12.10;;;;;;;17.17;72.10;98424.55;130478;1267;108594;-79
2022/09/27 13:51:16;;;;;;;14.40;12.90;;;;;;;17.13;72.20;98422.68;130432;1267;108690;-79
2022/09/27 13:54:50;;;;;;;14.30;12.40;;;;;;;17.07;71.80;98427.00;130522;1268;108743;-78
2022/09/27 13:57:58;;;;;;;15.70;12.70;;;;;;;17.00;71.93;98423.41;130339;1268;108847;-78
2022/09/27 14:01:15;;;;;;;15.20;12.90;;;;;;;17.00;72.09;98422.11;130533;1268;108896;-78
2022/09/27 14:04:25;;;;;;;14.70;12.60;;;;;;;16.98;72.09;98421.59;130380;1267;108836;-78
2022/09/27 14:07:40;;;;;;;14.00;12.50;;;;;;;16.92;72.00;98423.30;130354;1268;108749;-78
2022/09/27 14:10:46;;;;;;;13.50;11.80;;;;;;;16.87;72.12;98423.16;130392;1268;108968;-78
2022/09/27 14:13:54;;;;;;;12.40;11.00;;;;;;;16.85;72.10;98418.70;130631;1267;108712;-77
2022/09/27 14:17:01;;;;;;;13.80;12.30;;;;;;;16.88;72.42;98417.16;130425;1268;108765;-78
2022/09/27 14:20:30;;;;;;;14.50;13.00;;;;;;;16.89;72.19;98413.82;130341;1268;108796;-77
2022/09/27 14:23:36;;;;;;;14.00;12.20;;;;;;;16.82;72.01;98411.85;130679;1268;109031;-79
2022/09/27 14:26:43;;;;;;;13.20;11.70;;;;;;;16.75;72.02;98406.08;130829;1267;109106;-80
2022/09/27 14:29:52;;;;;;;13.70;12.30;;;;;;;16.70;72.18;98404.15;130892;1267;109031;-82
2022/09/27 14:33:01;;;;;;;13.30;11.90;;;;;;;16.71;72.27;98400.55;130738;1268;108464;-83
2022/09/27 14:40:03;;;;;;;14.10;12.00;;;;;;;16.70;71.98;98402.86;130449;1268;108782;-81
2022/09/27 14:43:17;;;;;;;13.70;12.20;;;;;;;16.61;71.88;98395.81;130998;1268;108759;-80